createdAt,value
2023-03-31T00:01:12.150Z,10.55
2023-03-31T00:03:43.902Z,7.18
2023-03-31T00:06:18.857Z,7.97
2023-03-31T00:08:52.317Z,7.68
2023-03-31T00:11:23.853Z,8.13
2023-03-31T00:13:50.718Z,10.57
2023-03-31T00:16:17.414Z,11.57
2023-03-31T00:18:51.377Z,12.35
2023-03-31T00:21:34.031Z,10.02
2023-03-31T00:24:09.882Z,6.85
2023-03-31T00:26:37.323Z,6.20
2023-03-31T00:29:05.893Z,10.93
2023-03-31T00:31:36.194Z,7.82
2023-03-31T00:34:03.301Z,6.35
2023-03-31T00:36:30.302Z,9.73
2023-03-31T00:39:02.796Z,13.65
2023-03-31T00:41:30.006Z,8.27
2023-03-31T00:44:08.642Z,12.43
2023-03-31T00:46:56.548Z,9.85
2023-03-31T00:49:30.139Z,4.80
2023-03-31T00:52:18.028Z,8.65
2023-03-31T00:54:48.643Z,9.68
2023-03-31T00:57:18.290Z,6.60
2023-03-31T00:59:50.232Z,6.05
2023-03-31T01:02:25.731Z,11.38
2023-03-31T01:04:59.486Z,9.85
2023-03-31T01:07:43.709Z,10.23
2023-03-31T01:10:11.603Z,8.23
2023-03-31T01:12:44.486Z,8.63
2023-03-31T01:15:12.073Z,9.07
2023-03-31T01:17:39.229Z,9.57
2023-03-31T01:20:23.552Z,4.93
2023-03-31T01:23:08.858Z,9.90
2023-03-31T01:26:01.590Z,12.15
2023-03-31T01:28:42.689Z,7.90
2023-03-31T01:31:30.841Z,6.93
2023-03-31T01:34:31.767Z,8.15
2023-03-31T01:37:32.878Z,9.15
2023-03-31T01:40:29.516Z,7.75
2023-03-31T01:43:25.240Z,7.40
2023-03-31T01:46:02.413Z,8.32
2023-03-31T01:49:20.338Z,9.18
2023-03-31T01:52:32.855Z,15.75
2023-03-31T01:55:12.866Z,7.00
2023-03-31T01:57:56.720Z,10.60
2023-03-31T02:00:33.545Z,6.57
2023-03-31T02:03:08.040Z,10.82
2023-03-31T02:05:44.291Z,11.20
2023-03-31T02:08:15.928Z,8.05
2023-03-31T02:10:45.820Z,8.88
2023-03-31T02:13:15.224Z,11.57
2023-03-31T02:15:46.775Z,9.85
2023-03-31T02:18:17.337Z,11.00
2023-03-31T02:20:47.604Z,9.75
2023-03-31T02:23:17.564Z,12.30
2023-03-31T02:25:51.707Z,11.07
2023-03-31T02:28:23.923Z,10.80
2023-03-31T02:31:13.358Z,8.00
2023-03-31T02:33:42.313Z,8.88
2023-03-31T02:36:09.494Z,13.32
2023-03-31T02:38:43.639Z,10.60
2023-03-31T02:41:10.831Z,9.75
2023-03-31T02:43:37.568Z,7.53
2023-03-31T02:46:06.554Z,6.85
2023-03-31T02:48:42.924Z,12.40
2023-03-31T02:51:24.926Z,8.82
2023-03-31T02:54:21.585Z,9.90
2023-03-31T02:57:06.472Z,7.53
2023-03-31T03:00:01.241Z,9.50
2023-03-31T03:02:31.145Z,6.20
2023-03-31T03:05:20.479Z,7.18
2023-03-31T03:08:06.186Z,9.30
2023-03-31T03:11:18.353Z,7.05
2023-03-31T03:13:52.784Z,11.30
2023-03-31T03:16:25.065Z,11.40
2023-03-31T03:19:02.419Z,6.95
2023-03-31T03:21:29.883Z,7.53
2023-03-31T03:23:56.957Z,5.00
2023-03-31T03:26:28.215Z,9.48
2023-03-31T03:28:56.694Z,8.68
2023-03-31T03:31:26.306Z,6.90
2023-03-31T03:33:53.638Z,9.43
2023-03-31T03:36:23.782Z,10.63
2023-03-31T03:38:51.070Z,10.40
2023-03-31T03:41:17.617Z,12.77
2023-03-31T03:43:44.497Z,12.68
2023-03-31T03:46:11.430Z,9.98
2023-03-31T03:48:38.227Z,10.35
2023-03-31T03:51:04.869Z,12.93
2023-03-31T03:53:33.869Z,8.20
2023-03-31T03:56:01.698Z,13.32
2023-03-31T03:58:28.441Z,11.82
2023-03-31T04:00:55.043Z,10.23
2023-03-31T04:03:24.621Z,15.73
2023-03-31T04:05:51.455Z,12.98
2023-03-31T04:08:18.715Z,8.55
2023-03-31T04:10:48.149Z,12.43
2023-03-31T04:13:19.685Z,11.48
2023-03-31T04:15:48.506Z,9.95
2023-03-31T04:18:22.915Z,11.90
2023-03-31T04:21:05.743Z,7.82
2023-03-31T04:23:34.024Z,6.15
2023-03-31T04:26:04.297Z,7.82
2023-03-31T04:28:35.129Z,7.80
2023-03-31T04:31:03.635Z,12.23
2023-03-31T04:33:30.605Z,7.70
2023-03-31T04:36:06.869Z,8.75
2023-03-31T04:38:33.855Z,8.68
2023-03-31T04:41:00.580Z,9.18
2023-03-31T04:43:27.190Z,7.53
2023-03-31T04:45:56.299Z,9.07
2023-03-31T04:48:25.249Z,12.75
2023-03-31T04:50:51.829Z,10.63
2023-03-31T04:53:18.588Z,8.38
2023-03-31T04:55:45.173Z,6.70
2023-03-31T04:58:11.833Z,4.00
2023-03-31T05:00:38.637Z,12.00
2023-03-31T05:03:05.254Z,8.00
2023-03-31T05:05:34.746Z,10.45
2023-03-31T05:08:01.780Z,7.45
2023-03-31T05:10:31.388Z,6.95
2023-03-31T05:13:00.650Z,12.50
2023-03-31T05:15:27.183Z,6.72
2023-03-31T05:17:54.035Z,15.13
2023-03-31T05:20:24.151Z,5.82
2023-03-31T05:22:51.133Z,7.78
2023-03-31T05:25:20.535Z,6.22
2023-03-31T05:27:48.059Z,6.80
2023-03-31T05:30:18.237Z,7.32
2023-03-31T05:32:44.863Z,8.10
2023-03-31T05:35:11.540Z,5.72
2023-03-31T05:37:38.461Z,7.18
2023-03-31T05:40:09.333Z,5.30
2023-03-31T05:42:38.091Z,8.88
2023-03-31T05:45:06.528Z,6.13
2023-03-31T05:47:35.286Z,7.50
2023-03-31T05:50:04.034Z,4.32
2023-03-31T05:52:32.893Z,7.65
2023-03-31T05:55:13.137Z,8.48
2023-03-31T05:57:41.504Z,7.53
2023-03-31T06:00:11.056Z,6.97
2023-03-31T06:02:39.437Z,5.65
2023-03-31T06:05:23.135Z,5.35
2023-03-31T06:08:03.999Z,5.20
2023-03-31T06:10:34.687Z,5.15
2023-03-31T06:13:05.257Z,4.38
2023-03-31T06:15:32.168Z,8.45
2023-03-31T06:18:01.639Z,7.20
2023-03-31T06:20:28.643Z,7.28
2023-03-31T06:22:58.042Z,4.40
2023-03-31T06:25:24.653Z,4.70
2023-03-31T06:27:53.514Z,5.82
2023-03-31T06:30:20.383Z,4.65
2023-03-31T06:32:49.098Z,3.67
2023-03-31T06:35:15.808Z,3.65
2023-03-31T06:37:42.352Z,5.80
2023-03-31T06:40:09.714Z,5.00
2023-03-31T06:42:36.254Z,5.60
2023-03-31T06:45:02.873Z,5.60
2023-03-31T06:47:29.469Z,4.60
2023-03-31T06:49:56.238Z,7.20
2023-03-31T06:52:23.109Z,4.32
2023-03-31T06:54:52.168Z,6.15
2023-03-31T06:57:19.009Z,2.85
2023-03-31T06:59:45.612Z,5.85
2023-03-31T07:02:17.042Z,5.20
2023-03-31T07:04:43.672Z,4.22
2023-03-31T07:07:12.570Z,4.65
2023-03-31T07:09:39.148Z,5.93
2023-03-31T07:12:07.970Z,3.30
2023-03-31T07:14:34.589Z,4.20
2023-03-31T07:17:01.249Z,5.70
2023-03-31T07:19:27.897Z,6.88
2023-03-31T07:21:54.901Z,4.40
2023-03-31T07:24:21.509Z,2.83
2023-03-31T07:26:48.349Z,5.45
2023-03-31T07:29:17.214Z,2.35
2023-03-31T07:31:46.743Z,5.15
2023-03-31T07:34:13.369Z,8.20
2023-03-31T07:36:40.010Z,3.20
2023-03-31T07:39:09.458Z,8.15
2023-03-31T07:41:36.045Z,5.45
2023-03-31T07:44:02.669Z,6.97
2023-03-31T07:46:31.897Z,10.27
2023-03-31T07:48:58.890Z,4.95
2023-03-31T07:51:31.418Z,11.48
2023-03-31T07:53:58.015Z,12.57
2023-03-31T07:56:25.106Z,10.07
2023-03-31T07:58:54.448Z,11.57
2023-03-31T08:01:25.881Z,9.07
2023-03-31T08:03:54.673Z,8.45
2023-03-31T08:06:23.394Z,13.75
2023-03-31T08:08:50.636Z,13.57
2023-03-31T08:11:18.867Z,12.18
2023-03-31T08:13:47.695Z,13.25
2023-03-31T08:16:14.597Z,14.57
2023-03-31T08:18:41.370Z,17.70
2023-03-31T08:21:10.014Z,13.98
2023-03-31T08:23:36.925Z,10.20
2023-03-31T08:26:12.050Z,10.88
2023-03-31T08:28:40.839Z,14.68
2023-03-31T08:31:10.548Z,17.52
2023-03-31T08:33:38.138Z,14.73
2023-03-31T08:36:10.573Z,11.65
2023-03-31T08:38:39.215Z,14.77
2023-03-31T08:41:16.671Z,15.48
2023-03-31T08:43:46.585Z,19.08
2023-03-31T08:46:17.513Z,15.45
2023-03-31T08:48:55.062Z,14.88
2023-03-31T08:51:28.375Z,14.48
2023-03-31T08:54:08.479Z,18.60
2023-03-31T08:56:39.490Z,14.32
2023-03-31T08:59:16.654Z,11.48
2023-03-31T09:02:00.036Z,16.95
2023-03-31T09:04:32.755Z,18.13
2023-03-31T09:07:36.869Z,12.98
2023-03-31T09:10:12.081Z,15.55
2023-03-31T09:13:03.059Z,12.73
2023-03-31T09:15:46.636Z,13.80
2023-03-31T09:18:27.873Z,16.70
2023-03-31T09:21:04.940Z,14.45
2023-03-31T09:23:39.626Z,17.05
2023-03-31T09:26:17.712Z,13.35
2023-03-31T09:28:48.772Z,16.92
2023-03-31T09:31:20.017Z,12.38
2023-03-31T09:33:52.430Z,11.20
2023-03-31T09:36:22.448Z,13.93
2023-03-31T09:38:49.847Z,15.88
2023-03-31T09:41:18.930Z,13.65
2023-03-31T09:43:49.682Z,15.77
2023-03-31T09:46:21.552Z,15.25
2023-03-31T09:49:27.209Z,12.85
2023-03-31T09:52:14.954Z,12.80
2023-03-31T09:54:49.769Z,13.80
2023-03-31T09:57:33.498Z,12.07
2023-03-31T10:00:16.693Z,14.45
2023-03-31T10:02:49.743Z,12.70
2023-03-31T10:05:28.571Z,10.45
2023-03-31T10:08:21.555Z,17.80
2023-03-31T10:10:53.474Z,9.75
2023-03-31T10:13:33.064Z,12.05
2023-03-31T10:16:11.418Z,9.60
2023-03-31T10:18:42.007Z,12.65
2023-03-31T10:21:43.714Z,14.48
2023-03-31T10:24:11.397Z,15.45
2023-03-31T10:26:41.552Z,15.05
2023-03-31T10:29:18.194Z,8.02
2023-03-31T10:31:47.150Z,8.48
2023-03-31T10:34:19.438Z,11.77
2023-03-31T10:36:48.324Z,10.73
2023-03-31T10:39:28.493Z,11.13
2023-03-31T10:41:55.354Z,9.55
2023-03-31T10:44:40.588Z,8.15
2023-03-31T10:47:20.071Z,7.72
2023-03-31T10:49:58.552Z,10.57
2023-03-31T10:52:29.871Z,7.75
2023-03-31T10:55:01.651Z,8.88
2023-03-31T10:57:57.307Z,9.95
2023-03-31T11:00:47.382Z,15.73
2023-03-31T11:03:34.105Z,15.02
2023-03-31T11:06:26.696Z,11.63
2023-03-31T11:09:05.437Z,12.07
2023-03-31T11:11:39.034Z,10.32
2023-03-31T11:14:11.935Z,7.03
2023-03-31T11:16:49.762Z,14.73
2023-03-31T11:19:56.811Z,10.85
2023-03-31T11:22:31.768Z,16.15
2023-03-31T11:25:12.295Z,17.73
2023-03-31T11:28:06.927Z,10.40
2023-03-31T11:30:52.186Z,8.85
2023-03-31T11:33:57.009Z,11.68
2023-03-31T11:36:51.008Z,10.45
2023-03-31T11:39:27.902Z,12.15
2023-03-31T11:42:05.431Z,10.93
2023-03-31T11:44:42.797Z,13.65
2023-03-31T11:47:17.156Z,9.93
2023-03-31T11:50:14.966Z,10.60
2023-03-31T11:52:48.507Z,11.70
2023-03-31T11:55:23.128Z,10.65
2023-03-31T11:58:17.583Z,13.85
2023-03-31T12:00:53.927Z,12.77
2023-03-31T12:03:37.290Z,17.90
2023-03-31T12:06:13.295Z,15.52
2023-03-31T12:08:58.809Z,15.52
2023-03-31T12:11:33.006Z,8.88
2023-03-31T12:14:20.451Z,10.95
2023-03-31T12:16:52.135Z,14.70
2023-03-31T12:19:27.821Z,11.80
2023-03-31T12:22:08.207Z,9.40
2023-03-31T12:24:34.913Z,11.65
2023-03-31T12:27:18.792Z,11.73
2023-03-31T12:29:58.459Z,11.27
2023-03-31T12:32:36.443Z,7.25
2023-03-31T12:35:21.917Z,7.20
2023-03-31T12:38:39.448Z,11.65
2023-03-31T12:41:30.181Z,8.73
2023-03-31T12:44:26.853Z,9.23
2023-03-31T12:47:50.479Z,6.15
2023-03-31T12:50:47.637Z,10.73
2023-03-31T12:54:15.345Z,9.85
2023-03-31T12:57:25.201Z,16.70
2023-03-31T13:00:30.315Z,9.07
2023-03-31T13:03:37.800Z,18.63
2023-03-31T13:06:06.644Z,13.32
2023-03-31T13:08:54.066Z,12.57
2023-03-31T13:11:49.456Z,8.07
2023-03-31T13:14:26.894Z,6.10
2023-03-31T13:17:21.086Z,7.70
2023-03-31T13:20:16.651Z,7.68
2023-03-31T13:22:49.093Z,7.50
2023-03-31T13:25:55.017Z,8.05
2023-03-31T13:28:22.772Z,9.00
2023-03-31T13:30:58.665Z,9.25
2023-03-31T13:33:31.462Z,8.40
2023-03-31T13:36:52.909Z,7.28
2023-03-31T13:43:38.900Z,8.77
2023-03-31T13:46:57.418Z,4.85
2023-03-31T13:49:54.165Z,8.73
2023-03-31T13:52:38.139Z,8.27
2023-03-31T13:55:37.123Z,5.45
2023-03-31T13:58:33.466Z,8.05
2023-03-31T14:01:36.842Z,10.32
2023-03-31T14:04:38.019Z,5.40
2023-03-31T14:07:17.154Z,6.47
2023-03-31T14:09:59.442Z,5.43
2023-03-31T14:12:36.953Z,7.38
2023-03-31T14:15:06.310Z,5.50
2023-03-31T14:17:39.306Z,8.77
2023-03-31T14:20:32.414Z,6.45
2023-03-31T14:23:13.261Z,4.95
2023-03-31T14:26:07.306Z,5.88
2023-03-31T14:28:37.373Z,6.65
2023-03-31T14:31:21.539Z,7.28
2023-03-31T14:34:25.407Z,7.38
2023-03-31T14:37:05.096Z,5.72
2023-03-31T14:39:47.441Z,7.70
2023-03-31T14:42:17.647Z,6.93
2023-03-31T14:44:47.784Z,6.70
2023-03-31T14:47:20.060Z,2.92
2023-03-31T14:49:46.895Z,4.70
2023-03-31T14:52:21.484Z,4.97
2023-03-31T14:54:48.236Z,4.47
2023-03-31T14:57:40.847Z,4.13
2023-03-31T15:00:15.759Z,5.10
2023-03-31T15:02:52.869Z,4.57
2023-03-31T15:05:23.191Z,3.17
2023-03-31T15:07:50.123Z,4.85
2023-03-31T15:10:20.992Z,4.22
2023-03-31T15:12:50.355Z,5.45
2023-03-31T15:15:19.721Z,3.88
2023-03-31T15:17:47.978Z,7.07
2023-03-31T15:20:34.980Z,2.58
2023-03-31T15:23:05.077Z,2.67
2023-03-31T15:25:39.576Z,5.28
2023-03-31T15:28:14.751Z,1.77
2023-03-31T15:30:42.079Z,1.83
2023-03-31T15:33:19.540Z,2.38
2023-03-31T15:35:47.167Z,1.92
2023-03-31T15:38:18.459Z,2.53
2023-03-31T15:40:50.277Z,1.05
2023-03-31T15:43:50.864Z,3.88
2023-03-31T15:46:36.031Z,3.35
2023-03-31T15:49:02.717Z,4.22
2023-03-31T15:51:35.986Z,1.63
2023-03-31T15:54:05.833Z,1.90
2023-03-31T15:56:34.985Z,1.77
2023-03-31T15:59:22.459Z,1.95
2023-03-31T16:01:50.905Z,3.05
2023-03-31T16:04:20.670Z,3.65
2023-03-31T16:07:05.845Z,2.50
2023-03-31T16:09:35.912Z,3.08
2023-03-31T16:12:05.874Z,1.17
2023-03-31T16:14:37.325Z,3.28
2023-03-31T16:17:14.446Z,2.78
2023-03-31T16:19:53.838Z,2.65
2023-03-31T16:22:26.073Z,2.85
2023-03-31T16:24:52.857Z,3.10
2023-03-31T16:27:25.469Z,1.75
2023-03-31T16:30:08.145Z,2.40
2023-03-31T16:32:35.033Z,2.75
2023-03-31T16:35:05.838Z,5.15
2023-03-31T16:37:32.830Z,3.45
2023-03-31T16:39:59.435Z,7.40
2023-03-31T16:42:27.236Z,6.38
2023-03-31T16:45:12.754Z,2.70
2023-03-31T16:47:44.580Z,2.15
2023-03-31T16:50:12.290Z,2.83
2023-03-31T16:52:39.707Z,2.47
2023-03-31T16:55:12.119Z,1.45
2023-03-31T16:57:38.748Z,2.90
2023-03-31T17:00:05.911Z,1.02
2023-03-31T17:02:32.546Z,1.25
2023-03-31T17:05:06.073Z,3.75
2023-03-31T17:07:38.599Z,0.98
2023-03-31T17:10:05.829Z,2.15
2023-03-31T17:12:32.422Z,3.78
2023-03-31T17:14:59.034Z,3.50
2023-03-31T17:17:25.776Z,4.05
2023-03-31T17:19:55.179Z,2.78
2023-03-31T17:22:22.233Z,3.30
2023-03-31T17:24:50.004Z,3.50
2023-03-31T17:27:17.008Z,3.90
2023-03-31T17:29:43.711Z,4.20
2023-03-31T17:32:12.161Z,3.80
2023-03-31T17:34:41.270Z,3.10
2023-03-31T17:37:08.368Z,1.83
2023-03-31T17:39:35.750Z,6.95
2023-03-31T17:42:03.881Z,4.20
2023-03-31T17:44:30.572Z,6.57
2023-03-31T17:46:59.566Z,3.33
2023-03-31T17:49:26.166Z,3.55
2023-03-31T17:51:53.229Z,7.57
2023-03-31T17:54:22.308Z,4.80
2023-03-31T17:56:51.845Z,5.20
2023-03-31T17:59:24.103Z,5.93
2023-03-31T18:01:51.055Z,4.75
2023-03-31T18:04:18.296Z,3.70
2023-03-31T18:06:45.163Z,5.10
2023-03-31T18:09:11.974Z,4.22
2023-03-31T18:11:38.899Z,4.13
2023-03-31T18:14:06.400Z,5.03
2023-03-31T18:16:35.303Z,4.85
2023-03-31T18:19:04.489Z,3.83
2023-03-31T18:21:34.995Z,2.85
2023-03-31T18:24:04.192Z,3.55
2023-03-31T18:26:30.824Z,3.42
2023-03-31T18:28:57.428Z,5.20
2023-03-31T18:31:27.340Z,2.38
2023-03-31T18:33:58.755Z,4.35
2023-03-31T18:36:27.494Z,5.68
2023-03-31T18:38:55.583Z,3.72
2023-03-31T18:41:23.056Z,2.90
2023-03-31T18:43:52.560Z,5.03
2023-03-31T18:46:19.930Z,3.90
2023-03-31T18:48:48.805Z,7.18
2023-03-31T18:51:15.485Z,4.03
2023-03-31T18:53:44.543Z,2.53
2023-03-31T18:56:11.390Z,3.45
2023-03-31T18:58:43.169Z,5.65
2023-03-31T19:01:09.793Z,4.32
2023-03-31T19:03:36.666Z,5.35
2023-03-31T19:06:10.348Z,3.40
2023-03-31T19:08:37.521Z,1.15
2023-03-31T19:11:15.152Z,4.22
2023-03-31T19:13:42.869Z,4.85
2023-03-31T19:16:13.470Z,3.72
2023-03-31T19:18:41.047Z,5.93
2023-03-31T19:21:09.879Z,6.03
2023-03-31T19:23:36.612Z,3.58
2023-03-31T19:26:03.929Z,5.38
2023-03-31T19:28:33.280Z,4.07
2023-03-31T19:31:03.179Z,4.45
2023-03-31T19:33:29.782Z,5.38
2023-03-31T19:35:56.389Z,3.70
2023-03-31T19:38:23.114Z,4.63
2023-03-31T19:40:50.028Z,2.95
2023-03-31T19:43:24.870Z,2.83
2023-03-31T19:45:53.564Z,6.63
2023-03-31T19:48:21.441Z,5.13
2023-03-31T19:50:57.031Z,6.57
2023-03-31T19:53:24.280Z,5.72
2023-03-31T19:56:05.392Z,6.28
2023-03-31T19:58:35.268Z,4.03
2023-03-31T20:01:03.250Z,6.05
2023-03-31T20:03:30.857Z,6.30
2023-03-31T20:06:13.059Z,4.88
2023-03-31T20:08:42.998Z,6.93
2023-03-31T20:11:15.132Z,6.15
2023-03-31T20:13:46.324Z,7.38
2023-03-31T20:16:19.077Z,6.68
2023-03-31T20:18:51.756Z,8.95
2023-03-31T20:21:20.692Z,4.75
2023-03-31T20:23:50.215Z,8.20
2023-03-31T20:26:19.864Z,5.28
2023-03-31T20:28:49.115Z,6.85
2023-03-31T20:31:15.738Z,9.48
2023-03-31T20:33:43.382Z,5.28
2023-03-31T20:36:15.586Z,5.13
2023-03-31T20:38:45.019Z,9.23
2023-03-31T20:41:12.849Z,9.07
2023-03-31T20:43:40.164Z,6.00
2023-03-31T20:46:11.235Z,7.43
2023-03-31T20:48:41.698Z,5.65
2023-03-31T20:51:10.978Z,5.95
2023-03-31T20:53:44.161Z,5.60
2023-03-31T20:56:13.002Z,7.75
2023-03-31T20:58:42.470Z,9.55
2023-03-31T21:01:11.649Z,6.43
2023-03-31T21:03:40.822Z,8.57
2023-03-31T21:06:11.346Z,7.50
2023-03-31T21:08:41.750Z,6.47
2023-03-31T21:11:08.540Z,5.78
2023-03-31T21:13:35.257Z,5.57
2023-03-31T21:16:02.386Z,7.20
2023-03-31T21:18:29.823Z,5.97
2023-03-31T21:21:02.225Z,9.80
2023-03-31T21:23:30.361Z,5.90
2023-03-31T21:26:03.662Z,10.98
2023-03-31T21:28:36.707Z,7.65
2023-03-31T21:31:07.265Z,9.85
2023-03-31T21:33:37.897Z,9.52
2023-03-31T21:36:12.303Z,10.18
2023-03-31T21:38:39.488Z,4.32
2023-03-31T21:41:14.703Z,3.20
2023-03-31T21:43:42.155Z,4.63
2023-03-31T21:46:09.626Z,6.15
2023-03-31T21:48:38.895Z,5.07
2023-03-31T21:51:07.832Z,8.57
2023-03-31T21:53:34.402Z,6.97
2023-03-31T21:56:01.169Z,7.30
2023-03-31T21:58:31.217Z,7.15
2023-03-31T22:01:02.809Z,9.73
2023-03-31T22:03:32.292Z,5.30
2023-03-31T22:06:01.970Z,11.73
2023-03-31T22:08:29.597Z,7.60
2023-03-31T22:10:57.528Z,14.10
2023-03-31T22:13:25.079Z,6.00
2023-03-31T22:15:52.427Z,5.05
2023-03-31T22:18:20.094Z,7.65
2023-03-31T22:20:50.135Z,6.90
2023-03-31T22:23:17.762Z,4.60
2023-03-31T22:25:44.534Z,7.03
2023-03-31T22:28:12.641Z,5.60
2023-03-31T22:30:39.492Z,7.20
2023-03-31T22:33:08.553Z,5.00
2023-03-31T22:35:35.597Z,8.25
2023-03-31T22:38:03.251Z,7.15
2023-03-31T22:40:30.286Z,7.65
2023-03-31T22:42:58.381Z,10.93
2023-03-31T22:45:25.519Z,9.18
2023-03-31T22:47:54.588Z,4.30
2023-03-31T22:50:21.733Z,6.03
2023-03-31T22:52:48.618Z,6.00
2023-03-31T22:55:15.355Z,5.13
2023-03-31T22:57:42.701Z,6.50
2023-03-31T23:00:10.612Z,8.13
2023-03-31T23:02:42.296Z,7.25
2023-03-31T23:05:09.480Z,3.80
2023-03-31T23:07:36.508Z,7.40
2023-03-31T23:10:06.131Z,3.95
2023-03-31T23:12:35.020Z,6.65
2023-03-31T23:15:02.263Z,4.35
2023-03-31T23:17:31.704Z,7.32
2023-03-31T23:19:58.413Z,4.40
2023-03-31T23:22:27.711Z,5.05
2023-03-31T23:24:54.330Z,6.03
2023-03-31T23:27:25.720Z,6.75
2023-03-31T23:29:54.603Z,2.88
2023-03-31T23:32:21.396Z,6.03
2023-03-31T23:34:48.183Z,3.42
2023-03-31T23:37:15.895Z,9.13
2023-03-31T23:39:42.703Z,7.05
2023-03-31T23:42:12.745Z,4.88
2023-03-31T23:44:40.309Z,3.92
2023-03-31T23:47:06.919Z,8.60
2023-03-31T23:49:33.809Z,7.55
2023-03-31T23:52:00.529Z,5.53
2023-03-31T23:54:27.360Z,7.55
2023-03-31T23:56:54.247Z,5.80
2023-03-31T23:59:20.946Z,4.10
